Aviation Digital Data Service (ADDS)

Output produced by METARs form (1126 UTC 17 June 2019)
found at http://www.aviationweather.gov/metar/data/
 
METAR text: FGSL 171100Z 35004KT 300V070 9999 FEW010 SCT040 31/24 Q1015 NOSIG
Conditions at: FGSL (MALABO/FERNANDO , GQ) observed 1100 UTC 17 June 2019
Temperature: 31.0°C (88°F)
Dewpoint: 24.0°C (75°F) [RH = 66%]
Pressure (altimeter): 29.97 inches Hg (1015.0 mb)
Winds: from the N (350 degrees) at 5 MPH (4 knots; 2.1 m/s)
Visibility: 6 or more miles (10+ km)
Ceiling: at least 12,000 feet AGL
Clouds: few clouds at 1000 feet AGL
scattered clouds at 4000 feet AGL
Weather: no significant weather observed at this time

METAR text: FGSL 171000Z 27004KT 230V320 9999 FEW010 SCT040 30/24 Q1016 NOSIG
Conditions at: FGSL (MALABO/FERNANDO , GQ) observed 1000 UTC 17 June 2019
Temperature: 30.0°C (86°F)
Dewpoint: 24.0°C (75°F) [RH = 70%]
Pressure (altimeter): 30.00 inches Hg (1016.0 mb)
Winds: from the W (270 degrees) at 5 MPH (4 knots; 2.1 m/s)
Visibility: 6 or more miles (10+ km)
Ceiling: at least 12,000 feet AGL
Clouds: few clouds at 1000 feet AGL
scattered clouds at 4000 feet AGL
Weather: no significant weather observed at this time

METAR text: FGSL 170900Z 07003KT 360V100 9999 FEW010 SCT040 29/24 Q1016 NOSIG
Conditions at: FGSL (MALABO/FERNANDO , GQ) observed 0900 UTC 17 June 2019
Temperature: 29.0°C (84°F)
Dewpoint: 24.0°C (75°F) [RH = 74%]
Pressure (altimeter): 30.00 inches Hg (1016.0 mb)
Winds: from the ENE (70 degrees) at 3 MPH (3 knots; 1.5 m/s)
Visibility: 6 or more miles (10+ km)
Ceiling: at least 12,000 feet AGL
Clouds: few clouds at 1000 feet AGL
scattered clouds at 4000 feet AGL
Weather: no significant weather observed at this time

METAR text: FGSL 170800Z 05003KT 360V100 9999 FEW010 SCT040 29/24 Q1016 NOSIG
Conditions at: FGSL (MALABO/FERNANDO , GQ) observed 0800 UTC 17 June 2019
Temperature: 29.0°C (84°F)
Dewpoint: 24.0°C (75°F) [RH = 74%]
Pressure (altimeter): 30.00 inches Hg (1016.0 mb)
Winds: from the NE (50 degrees) at 3 MPH (3 knots; 1.5 m/s)
Visibility: 6 or more miles (10+ km)
Ceiling: at least 12,000 feet AGL
Clouds: few clouds at 1000 feet AGL
scattered clouds at 4000 feet AGL
Weather: no significant weather observed at this time

METAR text: FGSL 170700Z VRB01KT 9999 SCT010 SCT040 27/23 Q1015 NOSIG
Conditions at: FGSL (MALABO/FERNANDO , GQ) observed 0700 UTC 17 June 2019
Temperature: 27.0°C (81°F)
Dewpoint: 23.0°C (73°F) [RH = 79%]
Pressure (altimeter): 29.97 inches Hg (1015.0 mb)
Winds: variable direction winds at 1 MPH (1 knots; 0.5 m/s)
Visibility: 6 or more miles (10+ km)
Ceiling: at least 12,000 feet AGL
Clouds: scattered clouds at 1000 feet AGL
scattered clouds at 4000 feet AGL
Weather: no significant weather observed at this time

METAR text: FGSL 170600Z 00000KT 8000 -RA SCT010 BKN040 24/24 Q1015 NOSIG
Conditions at: FGSL (MALABO/FERNANDO , GQ) observed 0600 UTC 17 June 2019
Temperature: 24.0°C (75°F)
Dewpoint: 24.0°C (75°F) [RH = 100%]
Pressure (altimeter): 29.97 inches Hg (1015.0 mb)
Winds: calm
Visibility: 5 miles ( 8 km)
Ceiling: 4000 feet AGL
Clouds: scattered clouds at 1000 feet AGL
broken clouds at 4000 feet AGL
Weather: -RA  (light rain)

METAR text: FGSL 170500Z 00000KT 9999 FEW010 24/24 Q1014 NOSIG
Conditions at: FGSL (MALABO/FERNANDO , GQ) observed 0500 UTC 17 June 2019
Temperature: 24.0°C (75°F)
Dewpoint: 24.0°C (75°F) [RH = 100%]
Pressure (altimeter): 29.94 inches Hg (1014.0 mb)
Winds: calm
Visibility: 6 or more miles (10+ km)
Ceiling: at least 12,000 feet AGL
Clouds: few clouds at 1000 feet AGL
Weather: no significant weather observed at this time

METAR text: FGSL 170400Z 00000KT 9999 FEW010 24/24 Q1014 NOSIG
Conditions at: FGSL (MALABO/FERNANDO , GQ) observed 0400 UTC 17 June 2019
Temperature: 24.0°C (75°F)
Dewpoint: 24.0°C (75°F) [RH = 100%]
Pressure (altimeter): 29.94 inches Hg (1014.0 mb)
Winds: calm
Visibility: 6 or more miles (10+ km)
Ceiling: at least 12,000 feet AGL
Clouds: few clouds at 1000 feet AGL
Weather: no significant weather observed at this time

METAR text: FGSL 170300Z 23003KT 9999 FEW010 24/24 Q1014 NOSIG
Conditions at: FGSL (MALABO/FERNANDO , GQ) observed 0300 UTC 17 June 2019
Temperature: 24.0°C (75°F)
Dewpoint: 24.0°C (75°F) [RH = 100%]
Pressure (altimeter): 29.94 inches Hg (1014.0 mb)
Winds: from the SW (230 degrees) at 3 MPH (3 knots; 1.5 m/s)
Visibility: 6 or more miles (10+ km)
Ceiling: at least 12,000 feet AGL
Clouds: few clouds at 1000 feet AGL
Weather: no significant weather observed at this time

METAR text: FGSL 170200Z 23002KT 9999 SCT010 24/24 Q1014 NOSIG
Conditions at: FGSL (MALABO/FERNANDO , GQ) observed 0200 UTC 17 June 2019
Temperature: 24.0°C (75°F)
Dewpoint: 24.0°C (75°F) [RH = 100%]
Pressure (altimeter): 29.94 inches Hg (1014.0 mb)
Winds: from the SW (230 degrees) at 2 MPH (2 knots; 1.0 m/s)
Visibility: 6 or more miles (10+ km)
Ceiling: at least 12,000 feet AGL
Clouds: scattered clouds at 1000 feet AGL
Weather: no significant weather observed at this time

METAR text: FGSL 170100Z 22002KT 9999 SCT010 23/23 Q1015 NOSIG
Conditions at: FGSL (MALABO/FERNANDO , GQ) observed 0100 UTC 17 June 2019
Temperature: 23.0°C (73°F)
Dewpoint: 23.0°C (73°F) [RH = 100%]
Pressure (altimeter): 29.97 inches Hg (1015.0 mb)
Winds: from the SW (220 degrees) at 2 MPH (2 knots; 1.0 m/s)
Visibility: 6 or more miles (10+ km)
Ceiling: at least 12,000 feet AGL
Clouds: scattered clouds at 1000 feet AGL
Weather: no significant weather observed at this time

METAR text: FGSL 170000Z 00000KT 9999 FEW010 23/23 Q1015 NOSIG
Conditions at: FGSL (MALABO/FERNANDO , GQ) observed 0000 UTC 17 June 2019
Temperature: 23.0°C (73°F)
Dewpoint: 23.0°C (73°F) [RH = 100%]
Pressure (altimeter): 29.97 inches Hg (1015.0 mb)
Winds: calm
Visibility: 6 or more miles (10+ km)
Ceiling: at least 12,000 feet AGL
Clouds: few clouds at 1000 feet AGL
Weather: no significant weather observed at this time

METAR text: FGSL 162300Z 21003KT 9999 FEW010 23/23 Q1015 NOSIG
Conditions at: FGSL (MALABO/FERNANDO , GQ) observed 2300 UTC 16 June 2019
Temperature: 23.0°C (73°F)
Dewpoint: 23.0°C (73°F) [RH = 100%]
Pressure (altimeter): 29.97 inches Hg (1015.0 mb)
Winds: from the SSW (210 degrees) at 3 MPH (3 knots; 1.5 m/s)
Visibility: 6 or more miles (10+ km)
Ceiling: at least 12,000 feet AGL
Clouds: few clouds at 1000 feet AGL
Weather: no significant weather observed at this time

METAR text: FGSL 162200Z 00000KT 9999 FEW010 23/23 Q1015 NOSIG
Conditions at: FGSL (MALABO/FERNANDO , GQ) observed 2200 UTC 16 June 2019
Temperature: 23.0°C (73°F)
Dewpoint: 23.0°C (73°F) [RH = 100%]
Pressure (altimeter): 29.97 inches Hg (1015.0 mb)
Winds: calm
Visibility: 6 or more miles (10+ km)
Ceiling: at least 12,000 feet AGL
Clouds: few clouds at 1000 feet AGL
Weather: no significant weather observed at this time

METAR text: FGSL 162100Z VRB02KT 9999 FEW010 SCT050 24/24 Q1015 NOSIG
Conditions at: FGSL (MALABO/FERNANDO , GQ) observed 2100 UTC 16 June 2019
Temperature: 24.0°C (75°F)
Dewpoint: 24.0°C (75°F) [RH = 100%]
Pressure (altimeter): 29.97 inches Hg (1015.0 mb)
Winds: variable direction winds at 2 MPH (2 knots; 1.0 m/s)
Visibility: 6 or more miles (10+ km)
Ceiling: at least 12,000 feet AGL
Clouds: few clouds at 1000 feet AGL
scattered clouds at 5000 feet AGL
Weather: no significant weather observed at this time

METAR text: FGSL 162000Z VRB01KT 9999 FEW010 SCT050 24/24 Q1015 NOSIG
Conditions at: FGSL (MALABO/FERNANDO , GQ) observed 2000 UTC 16 June 2019
Temperature: 24.0°C (75°F)
Dewpoint: 24.0°C (75°F) [RH = 100%]
Pressure (altimeter): 29.97 inches Hg (1015.0 mb)
Winds: variable direction winds at 1 MPH (1 knots; 0.5 m/s)
Visibility: 6 or more miles (10+ km)
Ceiling: at least 12,000 feet AGL
Clouds: few clouds at 1000 feet AGL
scattered clouds at 5000 feet AGL
Weather: no significant weather observed at this time

METAR text: FGSL 161900Z 00000KT 9999 FEW010 BKN050 24/24 Q1014 NOSIG
Conditions at: FGSL (MALABO/FERNANDO , GQ) observed 1900 UTC 16 June 2019
Temperature: 24.0°C (75°F)
Dewpoint: 24.0°C (75°F) [RH = 100%]
Pressure (altimeter): 29.94 inches Hg (1014.0 mb)
Winds: calm
Visibility: 6 or more miles (10+ km)
Ceiling: 5000 feet AGL
Clouds: few clouds at 1000 feet AGL
broken clouds at 5000 feet AGL
Weather: no significant weather observed at this time

METAR text: FGSL 161800Z 24002KT 9999 FEW010 BKN050 25/25 Q1014 NOSIG
Conditions at: FGSL (MALABO/FERNANDO , GQ) observed 1800 UTC 16 June 2019
Temperature: 25.0°C (77°F)
Dewpoint: 25.0°C (77°F) [RH = 100%]
Pressure (altimeter): 29.94 inches Hg (1014.0 mb)
Winds: from the WSW (240 degrees) at 2 MPH (2 knots; 1.0 m/s)
Visibility: 6 or more miles (10+ km)
Ceiling: 5000 feet AGL
Clouds: few clouds at 1000 feet AGL
broken clouds at 5000 feet AGL
Weather: no significant weather observed at this time

METAR text: FGSL 161700Z 25004KT 9999 FEW010 BKN050 27/23 Q1013 NOSIG
Conditions at: FGSL (MALABO/FERNANDO , GQ) observed 1700 UTC 16 June 2019
Temperature: 27.0°C (81°F)
Dewpoint: 23.0°C (73°F) [RH = 79%]
Pressure (altimeter): 29.91 inches Hg (1013.0 mb)
Winds: from the WSW (250 degrees) at 5 MPH (4 knots; 2.1 m/s)
Visibility: 6 or more miles (10+ km)
Ceiling: 5000 feet AGL
Clouds: few clouds at 1000 feet AGL
broken clouds at 5000 feet AGL
Weather: no significant weather observed at this time

METAR text: FGSL 161600Z 26005KT 9999 FEW010 BKN050 28/23 Q1013 NOSIG
Conditions at: FGSL (MALABO/FERNANDO , GQ) observed 1600 UTC 16 June 2019
Temperature: 28.0°C (82°F)
Dewpoint: 23.0°C (73°F) [RH = 74%]
Pressure (altimeter): 29.91 inches Hg (1013.0 mb)
Winds: from the W (260 degrees) at 6 MPH (5 knots; 2.6 m/s)
Visibility: 6 or more miles (10+ km)
Ceiling: 5000 feet AGL
Clouds: few clouds at 1000 feet AGL
broken clouds at 5000 feet AGL
Weather: no significant weather observed at this time

METAR text: FGSL 161500Z 29003KT 250V320 9999 FEW010 BKN050 27/23 Q1014 NOSIG
Conditions at: FGSL (MALABO/FERNANDO , GQ) observed 1500 UTC 16 June 2019
Temperature: 27.0°C (81°F)
Dewpoint: 23.0°C (73°F) [RH = 79%]
Pressure (altimeter): 29.94 inches Hg (1014.0 mb)
Winds: from the WNW (290 degrees) at 3 MPH (3 knots; 1.5 m/s)
Visibility: 6 or more miles (10+ km)
Ceiling: 5000 feet AGL
Clouds: few clouds at 1000 feet AGL
broken clouds at 5000 feet AGL
Weather: no significant weather observed at this time

METAR text: FGSL 161400Z VRB02KT 9999 FEW008 BKN050 27/24 Q1014 NOSIG
Conditions at: FGSL (MALABO/FERNANDO , GQ) observed 1400 UTC 16 June 2019
Temperature: 27.0°C (81°F)
Dewpoint: 24.0°C (75°F) [RH = 84%]
Pressure (altimeter): 29.94 inches Hg (1014.0 mb)
Winds: variable direction winds at 2 MPH (2 knots; 1.0 m/s)
Visibility: 6 or more miles (10+ km)
Ceiling: 5000 feet AGL
Clouds: few clouds at 800 feet AGL
broken clouds at 5000 feet AGL
Weather: no significant weather observed at this time

METAR text: FGSL 161300Z VRB01KT 8000 FEW008 BKN050 27/24 Q1015 NOSIG
Conditions at: FGSL (MALABO/FERNANDO , GQ) observed 1300 UTC 16 June 2019
Temperature: 27.0°C (81°F)
Dewpoint: 24.0°C (75°F) [RH = 84%]
Pressure (altimeter): 29.97 inches Hg (1015.0 mb)
Winds: variable direction winds at 1 MPH (1 knots; 0.5 m/s)
Visibility: 5 miles ( 8 km)
Ceiling: 5000 feet AGL
Clouds: few clouds at 800 feet AGL
broken clouds at 5000 feet AGL
Weather: no significant weather observed at this time

METAR text: FGSL 161200Z 25003KT 220V320 8000 FEW008 BKN050 25/25 Q1015 NOSIG
Conditions at: FGSL (MALABO/FERNANDO , GQ) observed 1200 UTC 16 June 2019
Temperature: 25.0°C (77°F)
Dewpoint: 25.0°C (77°F) [RH = 100%]
Pressure (altimeter): 29.97 inches Hg (1015.0 mb)
Winds: from the WSW (250 degrees) at 3 MPH (3 knots; 1.5 m/s)
Visibility: 5 miles ( 8 km)
Ceiling: 5000 feet AGL
Clouds: few clouds at 800 feet AGL
broken clouds at 5000 feet AGL
Weather: no significant weather observed at this time

METAR text: FGSL 161100Z 26005KT 8000 -RA SCT008 BKN040 24/24 Q1016 NOSIG
Conditions at: FGSL (MALABO/FERNANDO , GQ) observed 1100 UTC 16 June 2019
Temperature: 24.0°C (75°F)
Dewpoint: 24.0°C (75°F) [RH = 100%]
Pressure (altimeter): 30.00 inches Hg (1016.0 mb)
Winds: from the W (260 degrees) at 6 MPH (5 knots; 2.6 m/s)
Visibility: 5 miles ( 8 km)
Ceiling: 4000 feet AGL
Clouds: scattered clouds at 800 feet AGL
broken clouds at 4000 feet AGL
Weather: -RA  (light rain)

METAR text: FGSL 161000Z 22009KT 4000 -TSRA SCT008 FEW020CB BKN040 24/24 Q1018 BECMG NSW
Conditions at: FGSL (MALABO/FERNANDO , GQ) observed 1000 UTC 16 June 2019
Temperature: 24.0°C (75°F)
Dewpoint: 24.0°C (75°F) [RH = 100%]
Pressure (altimeter): 30.06 inches Hg (1018.0 mb)
Winds: from the SW (220 degrees) at 10 MPH (9 knots; 4.6 m/s)
Visibility: 2.49 miles (4.01 km)
Ceiling: 4000 feet AGL
Clouds: scattered clouds at 800 feet AGL
few clouds at 2000 feet AGL
broken clouds at 4000 feet AGL
Weather: -TSRA  (light rain associated with thunderstorm(s))

METAR text: FGSL 160900Z 29006KT 270V330 2200 TSRA BKN006 FEW020CB OVC030 24/24 Q1018 TEMPO 1000 TSRA
Conditions at: FGSL (MALABO/FERNANDO , GQ) observed 0900 UTC 16 June 2019
Temperature: 24.0°C (75°F)
Dewpoint: 24.0°C (75°F) [RH = 100%]
Pressure (altimeter): 30.06 inches Hg (1018.0 mb)
Winds: from the WNW (290 degrees) at 7 MPH (6 knots; 3.1 m/s)
Visibility: 1.37 miles (2.20 km)
Ceiling: 600 feet AGL
Clouds: broken clouds at 600 feet AGL
few clouds at 2000 feet AGL
overcast cloud deck at 3000 feet AGL
Weather: TSRA  (rain associated with thunderstorm(s))

METAR text: FGSL 160800Z 23003KT 210V280 3500 -TSRA SCT009 FEW020CB BKN040 24/24 Q1017 TEMPO 2000 TSRA
Conditions at: FGSL (MALABO/FERNANDO , GQ) observed 0800 UTC 16 June 2019
Temperature: 24.0°C (75°F)
Dewpoint: 24.0°C (75°F) [RH = 100%]
Pressure (altimeter): 30.03 inches Hg (1017.0 mb)
Winds: from the SW (230 degrees) at 3 MPH (3 knots; 1.5 m/s)
Visibility: 2.17 miles (3.49 km)
Ceiling: 4000 feet AGL
Clouds: scattered clouds at 900 feet AGL
few clouds at 2000 feet AGL
broken clouds at 4000 feet AGL
Weather: -TSRA  (light rain associated with thunderstorm(s))

METAR text: FGSL 160700Z 22004KT 190V250 3500 -TSRADZ SCT007 FEW020CB OVC030 24/24 Q1016 TEMPO 2500 TSRA
Conditions at: FGSL (MALABO/FERNANDO , GQ) observed 0700 UTC 16 June 2019
Temperature: 24.0°C (75°F)
Dewpoint: 24.0°C (75°F) [RH = 100%]
Pressure (altimeter): 30.00 inches Hg (1016.0 mb)
Winds: from the SW (220 degrees) at 5 MPH (4 knots; 2.1 m/s)
Visibility: 2.17 miles (3.49 km)
Ceiling: 3000 feet AGL
Clouds: scattered clouds at 700 feet AGL
few clouds at 2000 feet AGL
overcast cloud deck at 3000 feet AGL
Weather: -TSRA -TSDZ  (light rain associated with thunderstorm(s), unknown weather)

METAR text: FGSL 160600Z 28003KT 240V330 6000 -TSRA SCT010 FEW020CB BKN040 24/24 Q1015 TEMPO 4000 TSRA
Conditions at: FGSL (MALABO/FERNANDO , GQ) observed 0600 UTC 16 June 2019
Temperature: 24.0°C (75°F)
Dewpoint: 24.0°C (75°F) [RH = 100%]
Pressure (altimeter): 29.97 inches Hg (1015.0 mb)
Winds: from the W (280 degrees) at 3 MPH (3 knots; 1.5 m/s)
Visibility: 4 miles ( 6 km)
Ceiling: 4000 feet AGL
Clouds: scattered clouds at 1000 feet AGL
few clouds at 2000 feet AGL
broken clouds at 4000 feet AGL
Weather: -TSRA  (light rain associated with thunderstorm(s))

METAR text: FGSL 160500Z 23003KT 8000 -RA SCT010 25/25 Q1014 NOSIG
Conditions at: FGSL (MALABO/FERNANDO , GQ) observed 0500 UTC 16 June 2019
Temperature: 25.0°C (77°F)
Dewpoint: 25.0°C (77°F) [RH = 100%]
Pressure (altimeter): 29.94 inches Hg (1014.0 mb)
Winds: from the SW (230 degrees) at 3 MPH (3 knots; 1.5 m/s)
Visibility: 5 miles ( 8 km)
Ceiling: at least 12,000 feet AGL
Clouds: scattered clouds at 1000 feet AGL
Weather: -RA  (light rain)

METAR text: FGSL 160400Z VRB02KT 8000 -RA SCT010 25/25 Q1014 NOSIG
Conditions at: FGSL (MALABO/FERNANDO , GQ) observed 0400 UTC 16 June 2019
Temperature: 25.0°C (77°F)
Dewpoint: 25.0°C (77°F) [RH = 100%]
Pressure (altimeter): 29.94 inches Hg (1014.0 mb)
Winds: variable direction winds at 2 MPH (2 knots; 1.0 m/s)
Visibility: 5 miles ( 8 km)
Ceiling: at least 12,000 feet AGL
Clouds: scattered clouds at 1000 feet AGL
Weather: -RA  (light rain)

METAR text: FGSL 160300Z 27004KT 9999 FEW010 26/26 Q1013 NOSIG
Conditions at: FGSL (MALABO/FERNANDO , GQ) observed 0300 UTC 16 June 2019
Temperature: 26.0°C (79°F)
Dewpoint: 26.0°C (79°F) [RH = 100%]
Pressure (altimeter): 29.91 inches Hg (1013.0 mb)
Winds: from the W (270 degrees) at 5 MPH (4 knots; 2.1 m/s)
Visibility: 6 or more miles (10+ km)
Ceiling: at least 12,000 feet AGL
Clouds: few clouds at 1000 feet AGL
Weather: no significant weather observed at this time

METAR text: FGSL 160200Z 20003KT 9999 FEW010 26/26 Q1013 NOSIG
Conditions at: FGSL (MALABO/FERNANDO , GQ) observed 0200 UTC 16 June 2019
Temperature: 26.0°C (79°F)
Dewpoint: 26.0°C (79°F) [RH = 100%]
Pressure (altimeter): 29.91 inches Hg (1013.0 mb)
Winds: from the SSW (200 degrees) at 3 MPH (3 knots; 1.5 m/s)
Visibility: 6 or more miles (10+ km)
Ceiling: at least 12,000 feet AGL
Clouds: few clouds at 1000 feet AGL
Weather: no significant weather observed at this time

METAR text: FGSL 160100Z 26006KT 9999 FEW010 26/26 Q1014 NOSIG
Conditions at: FGSL (MALABO/FERNANDO , GQ) observed 0100 UTC 16 June 2019
Temperature: 26.0°C (79°F)
Dewpoint: 26.0°C (79°F) [RH = 100%]
Pressure (altimeter): 29.94 inches Hg (1014.0 mb)
Winds: from the W (260 degrees) at 7 MPH (6 knots; 3.1 m/s)
Visibility: 6 or more miles (10+ km)
Ceiling: at least 12,000 feet AGL
Clouds: few clouds at 1000 feet AGL
Weather: no significant weather observed at this time

METAR text: FGSL 160000Z 23007KT 9999 FEW010 25/25 Q1014 NOSIG
Conditions at: FGSL (MALABO/FERNANDO , GQ) observed 0000 UTC 16 June 2019
Temperature: 25.0°C (77°F)
Dewpoint: 25.0°C (77°F) [RH = 100%]
Pressure (altimeter): 29.94 inches Hg (1014.0 mb)
Winds: from the SW (230 degrees) at 8 MPH (7 knots; 3.6 m/s)
Visibility: 6 or more miles (10+ km)
Ceiling: at least 12,000 feet AGL
Clouds: few clouds at 1000 feet AGL
Weather: no significant weather observed at this time

Forecast for: FGSL (MALABO/FERNANDO , GQ)
Text: TAF FGSL 170500Z 1706/1812 24008KT 9999 SCT010 FEW20CB
Forecast period: 0600 UTC 17 June 2019 to 1200 UTC 18 June 2019
Forecast type: FROM: standard forecast or significant change
Winds: from the WSW (240 degrees) at 9 MPH (8 knots; 4.1 m/s)
Visibility: 6 or more miles 10+ km)
Ceiling: at least 12,000 feet AGL
Clouds: scattered clouds at 1000 feet AGL
Weather: no significant weather forecast for this period
Text: BECMG 1706/1708 TS
Forecast period: 0600 to 1800 UTC 17 June 2019
Forecast type: BECOMING: Conditions expected to become as follows by 0800 UTC 17 June 2019
Winds: from the WSW (240 degrees) at 9 MPH (8 knots; 4.1 m/s)
Visibility: 6 or more miles 10+ km)
Ceiling: at least 12,000 feet AGL
Clouds: scattered clouds at 1000 feet AGL
Weather: TS  (thunderstorm)
Text: PROB30
Forecast period: 1000 to 1600 UTC 17 June 2019
Forecast type: TEMPORARY: The following changes expected for less than half the time period
Visibility: 2.49 miles (4.01 km)
Ceiling: 800 feet AGL
Clouds: broken clouds at 800 feet AGL
few clouds at 1800 feet AGL
Weather: TSRA TSDZ  (rain associated with thunderstorm(s), unknown weather)
Text: TEMPO 1710/1716 4000 TSRADZ BKN008 FEW018CB
Forecast period: 1800 UTC 17 June 2019 to 1200 UTC 18 June 2019
Forecast type: BECOMING: Conditions expected to become as follows by 2000 UTC 17 June 2019
Winds: from the WSW (240 degrees) at 9 MPH (8 knots; 4.1 m/s)
Visibility: 6 or more miles 10+ km)
Ceiling: at least 12,000 feet AGL
Clouds: scattered clouds at 1000 feet AGL
Weather: TS  (thunderstorm)